createdAt,value
2019-04-23T00:01:07.616Z,36.10
2019-04-23T00:01:59.770Z,36.70
2019-04-23T00:03:01.724Z,36.30
2019-04-23T00:03:51.668Z,36.00
2019-04-23T00:04:52.796Z,36.70
2019-04-23T00:06:12.093Z,35.70
2019-04-23T00:09:02.722Z,35.90
2019-04-23T00:10:06.271Z,36.60
2019-04-23T00:10:58.843Z,36.40
2019-04-23T00:11:59.836Z,34.80
2019-04-23T00:12:57.197Z,36.10
2019-04-23T00:14:03.485Z,37.20
2019-04-23T00:15:06.694Z,34.70
2019-04-23T00:16:03.062Z,36.20
2019-04-23T00:17:01.032Z,36.10
2019-04-23T00:18:00.836Z,36.90
2019-04-23T00:18:49.688Z,37.60
2019-04-23T00:20:03.828Z,37.60
2019-04-23T00:20:59.332Z,37.90
2019-04-23T00:21:57.408Z,36.70
2019-04-23T00:24:13.809Z,38.20
2019-04-23T00:27:11.188Z,37.20
2019-04-23T00:28:06.621Z,37.70
2019-04-23T00:29:10.672Z,37.40
2019-04-23T00:30:00.829Z,38.30
2019-04-23T00:32:00.973Z,36.30
2019-04-23T00:33:01.050Z,37.80
2019-04-23T00:34:01.230Z,37.10
2019-04-23T00:34:59.587Z,37.40
2019-04-23T00:35:55.052Z,37.40
2019-04-23T00:37:01.674Z,36.70
2019-04-23T00:38:05.268Z,38.20
2019-04-23T00:38:54.285Z,38.10
2019-04-23T00:39:56.562Z,37.50
2019-04-23T00:40:58.247Z,38.40
2019-04-23T00:41:58.599Z,37.70
2019-04-23T00:43:04.815Z,39.60
2019-04-23T00:44:01.951Z,38.90
2019-04-23T00:44:56.678Z,37.20
2019-04-23T00:45:54.559Z,39.10
2019-04-23T00:47:06.767Z,38.70
2019-04-23T00:47:54.729Z,38.70
2019-04-23T00:49:06.065Z,40.00
2019-04-23T00:50:06.339Z,40.80
2019-04-23T00:51:11.312Z,40.40
2019-04-23T00:52:09.463Z,41.30
2019-04-23T00:52:57.666Z,42.50
2019-04-23T00:53:56.632Z,40.70
2019-04-23T00:55:07.165Z,42.00
2019-04-23T00:56:20.051Z,41.00
2019-04-23T00:57:25.870Z,41.50
2019-04-23T00:58:06.219Z,42.10
2019-04-23T00:59:01.521Z,41.70
2019-04-23T01:01:04.132Z,42.50
2019-04-23T01:02:04.192Z,42.10
2019-04-23T01:03:57.853Z,43.10
2019-04-23T01:05:06.192Z,42.10
2019-04-23T01:05:58.872Z,42.00
2019-04-23T01:07:09.869Z,41.50
2019-04-23T01:07:58.490Z,41.70
2019-04-23T01:09:03.839Z,42.00
2019-04-23T01:09:59.809Z,41.80
2019-04-23T01:11:01.901Z,41.60
2019-04-23T01:12:03.500Z,42.20
2019-04-23T01:13:08.660Z,41.50
2019-04-23T01:14:01.127Z,41.80
2019-04-23T01:15:02.504Z,41.10
2019-04-23T01:15:59.593Z,40.80
2019-04-23T01:17:06.083Z,42.20
2019-04-23T01:18:14.072Z,41.50
2019-04-23T01:19:18.925Z,41.80
2019-04-23T01:20:01.917Z,41.30
2019-04-23T01:20:53.573Z,40.90
2019-04-23T01:21:41.146Z,41.90
2019-04-23T01:22:40.383Z,41.10
2019-04-23T01:23:47.064Z,42.00
2019-04-23T01:24:43.820Z,41.30
2019-04-23T01:25:52.277Z,41.30
2019-04-23T01:27:16.746Z,40.30
2019-04-23T01:28:02.124Z,40.20
2019-04-23T01:29:11.263Z,38.30
2019-04-23T01:30:10.038Z,40.30
2019-04-23T01:31:09.185Z,38.90
2019-04-23T01:32:07.103Z,40.20
2019-04-23T01:33:03.638Z,41.20
2019-04-23T01:34:07.948Z,42.10
2019-04-23T01:35:39.708Z,41.00
2019-04-23T01:36:20.594Z,39.40
2019-04-23T01:37:09.229Z,40.50
2019-04-23T01:38:04.801Z,41.40
2019-04-23T01:39:08.480Z,38.90
2019-04-23T01:40:11.826Z,39.50
2019-04-23T01:41:07.748Z,40.60
2019-04-23T01:42:12.944Z,40.30
2019-04-23T01:43:02.966Z,40.30
2019-04-23T01:44:04.185Z,39.40
2019-04-23T01:45:15.375Z,38.90
2019-04-23T01:46:07.937Z,40.10
2019-04-23T01:47:07.750Z,40.80
2019-04-23T01:48:17.871Z,39.80
2019-04-23T01:49:09.543Z,38.00
2019-04-23T01:51:02.530Z,38.70
2019-04-23T01:52:08.190Z,37.60
2019-04-23T01:54:02.944Z,38.80
2019-04-23T01:55:13.764Z,40.10
2019-04-23T01:56:07.775Z,38.70
2019-04-23T01:57:09.664Z,37.70
2019-04-23T01:58:31.829Z,37.40
2019-04-23T01:59:14.097Z,36.30
2019-04-23T02:01:07.288Z,36.50
2019-04-23T02:02:17.004Z,37.70
2019-04-23T02:03:24.540Z,36.70
2019-04-23T02:04:11.299Z,37.50
2019-04-23T02:05:19.318Z,35.60
2019-04-23T02:06:08.214Z,37.00
2019-04-23T02:07:11.381Z,36.20
2019-04-23T02:08:08.095Z,37.30
2019-04-23T02:09:10.973Z,36.20
2019-04-23T02:10:14.263Z,37.40
2019-04-23T02:11:07.615Z,36.10
2019-04-23T02:12:11.220Z,36.00
2019-04-23T02:13:12.606Z,35.40
2019-04-23T02:14:11.519Z,36.10
2019-04-23T02:15:12.133Z,35.00
2019-04-23T02:16:24.745Z,34.80
2019-04-23T02:17:09.785Z,35.70
2019-04-23T02:18:13.368Z,34.30
2019-04-23T02:19:11.444Z,33.60
2019-04-23T02:20:17.972Z,35.40
2019-04-23T02:21:07.471Z,32.80
2019-04-23T02:22:23.099Z,33.60
2019-04-23T02:23:21.878Z,33.00
2019-04-23T02:24:03.658Z,33.90
2019-04-23T02:25:14.412Z,33.30
2019-04-23T02:26:08.992Z,33.70
2019-04-23T02:27:17.251Z,33.40
2019-04-23T02:28:11.907Z,32.90
2019-04-23T02:29:23.640Z,33.20
2019-04-23T02:30:26.249Z,33.10
2019-04-23T02:31:44.542Z,33.10
2019-04-23T02:32:22.152Z,32.00
2019-04-23T02:33:30.122Z,32.50
2019-04-23T02:34:23.587Z,31.00
2019-04-23T02:35:42.738Z,31.70
2019-04-23T02:36:11.312Z,32.30
2019-04-23T02:37:24.453Z,33.20
2019-04-23T02:39:11.719Z,32.90
2019-04-23T02:40:26.343Z,32.00
2019-04-23T02:41:19.832Z,32.60
2019-04-23T02:44:19.134Z,31.30
2019-04-23T02:45:16.872Z,32.10
2019-04-23T02:47:33.533Z,32.30
2019-04-23T02:49:21.479Z,33.00
2019-04-23T02:50:31.521Z,34.00
2019-04-23T02:51:17.610Z,32.90
2019-04-23T02:52:21.351Z,33.80
2019-04-23T02:53:27.802Z,33.40
2019-04-23T02:54:28.735Z,31.70
2019-04-23T02:55:18.089Z,30.70
2019-04-23T02:56:32.946Z,32.90
2019-04-23T02:57:13.405Z,31.20
2019-04-23T02:58:28.161Z,30.90
2019-04-23T03:03:31.742Z,31.20
2019-04-23T03:04:37.290Z,31.60
2019-04-23T03:06:16.337Z,32.20
2019-04-23T03:07:27.816Z,30.80
2019-04-23T03:08:20.247Z,29.40
2019-04-23T03:09:23.880Z,30.30
2019-04-23T03:10:15.718Z,29.30
2019-04-23T03:11:32.084Z,29.30
2019-04-23T03:12:27.229Z,26.80
2019-04-23T03:14:15.551Z,26.40
2019-04-23T03:16:37.946Z,26.30
2019-04-23T03:17:09.727Z,27.10
2019-04-23T03:19:19.177Z,25.90
2019-04-23T03:20:21.497Z,26.70
2019-04-23T03:21:26.910Z,26.00
2019-04-23T03:23:29.178Z,25.90
2019-04-23T03:26:28.160Z,26.70
2019-04-23T03:28:26.866Z,24.50
2019-04-23T03:30:33.488Z,25.60
2019-04-23T03:34:34.978Z,24.70
2019-04-23T03:36:13.947Z,23.20
2019-04-23T03:37:33.870Z,23.30
2019-04-23T03:38:32.535Z,22.70
2019-04-23T03:39:18.800Z,23.40
2019-04-23T03:40:32.420Z,20.80
2019-04-23T03:41:21.764Z,17.60
2019-04-23T03:42:22.278Z,17.10
2019-04-23T03:43:25.533Z,15.40
2019-04-23T03:44:22.367Z,15.50
2019-04-23T03:46:24.168Z,17.70
2019-04-23T03:47:24.962Z,17.50
2019-04-23T03:49:13.435Z,14.80
2019-04-23T03:50:24.112Z,14.10
2019-04-23T03:51:26.002Z,14.00
2019-04-23T03:53:24.741Z,12.30
2019-04-23T03:55:29.230Z,12.20
2019-04-23T03:56:34.318Z,12.50
2019-04-23T03:58:28.334Z,11.60
2019-04-23T03:59:29.699Z,10.60
2019-04-23T04:00:37.209Z,10.10
2019-04-23T04:01:22.895Z,10.20
2019-04-23T04:03:42.128Z,9.90
2019-04-23T04:04:31.212Z,9.60
2019-04-23T04:05:31.155Z,9.50
2019-04-23T04:07:30.202Z,8.80
2019-04-23T04:08:18.076Z,9.30
2019-04-23T04:09:33.163Z,9.80
2019-04-23T04:10:16.655Z,9.00
2019-04-23T04:11:25.767Z,8.80
2019-04-23T04:12:29.361Z,9.00
2019-04-23T04:14:31.676Z,8.70
2019-04-23T04:15:43.721Z,8.80
2019-04-23T04:16:17.883Z,9.00
2019-04-23T04:17:19.818Z,8.90
2019-04-23T04:18:32.693Z,8.80
2019-04-23T04:20:29.031Z,9.10
2019-04-23T04:21:24.632Z,8.90
2019-04-23T04:22:29.225Z,9.20
2019-04-23T04:24:29.534Z,8.70
2019-04-23T04:25:30.727Z,8.80
2019-04-23T04:26:22.864Z,8.90
2019-04-23T04:27:26.998Z,8.90
2019-04-23T04:29:30.106Z,8.70
2019-04-23T04:30:27.265Z,9.10
2019-04-23T04:31:23.419Z,9.20
2019-04-23T04:32:38.300Z,9.00
2019-04-23T04:34:39.772Z,9.60
2019-04-23T04:35:22.809Z,9.30
2019-04-23T04:38:38.546Z,10.20
2019-04-23T04:40:36.435Z,10.00
2019-04-23T04:41:25.502Z,10.20
2019-04-23T04:42:15.178Z,10.60
2019-04-23T04:43:41.669Z,10.70
2019-04-23T04:46:35.094Z,10.00
2019-04-23T04:47:33.286Z,10.30
2019-04-23T04:48:22.963Z,10.60
2019-04-23T04:49:23.684Z,11.60
2019-04-23T04:50:24.143Z,12.20
2019-04-23T04:51:28.885Z,11.80
2019-04-23T04:52:39.251Z,11.80
2019-04-23T04:54:21.580Z,12.10
2019-04-23T04:55:21.502Z,12.90
2019-04-23T04:56:34.201Z,13.00
2019-04-23T04:57:34.931Z,12.90
2019-04-23T04:58:23.530Z,11.60
2019-04-23T04:59:26.254Z,11.50
2019-04-23T05:03:25.931Z,13.20
2019-04-23T05:04:30.768Z,13.20
2019-04-23T05:06:02.797Z,13.10
2019-04-23T05:06:24.682Z,12.90
2019-04-23T05:07:32.644Z,12.20
2019-04-23T05:08:36.849Z,12.80
2019-04-23T05:11:26.815Z,12.10
2019-04-23T05:12:22.793Z,12.50
2019-04-23T05:14:25.207Z,13.10
2019-04-23T05:15:25.762Z,13.20
2019-04-23T05:16:19.652Z,16.20
2019-04-23T05:17:30.185Z,16.80
2019-04-23T05:18:23.982Z,15.50
2019-04-23T05:19:28.762Z,12.40
2019-04-23T05:20:21.031Z,11.50
2019-04-23T05:21:33.140Z,10.70
2019-04-23T05:22:20.845Z,10.20
2019-04-23T05:23:33.826Z,10.80
2019-04-23T05:25:17.657Z,11.20
2019-04-23T05:26:24.738Z,11.30
2019-04-23T05:27:17.494Z,10.20
2019-04-23T05:28:24.552Z,10.40
2019-04-23T05:30:29.804Z,15.20
2019-04-23T05:31:18.646Z,15.20
2019-04-23T05:32:20.527Z,13.60
2019-04-23T05:33:29.046Z,12.30
2019-04-23T05:34:19.516Z,12.20
2019-04-23T05:36:52.148Z,16.00
2019-04-23T05:37:27.776Z,14.00
2019-04-23T05:38:37.704Z,19.30
2019-04-23T05:39:24.325Z,16.40
2019-04-23T05:40:30.401Z,19.50
2019-04-23T05:42:20.800Z,18.50
2019-04-23T05:43:19.144Z,18.60
2019-04-23T05:44:27.700Z,19.80
2019-04-23T05:45:18.470Z,21.90
2019-04-23T05:46:26.356Z,23.70
2019-04-23T05:47:25.419Z,23.20
2019-04-23T05:48:17.487Z,23.60
2019-04-23T05:49:17.953Z,23.60
2019-04-23T05:50:26.020Z,22.40
2019-04-23T05:51:31.119Z,24.20
2019-04-23T05:52:24.000Z,24.90
2019-04-23T05:53:19.616Z,24.40
2019-04-23T05:54:18.949Z,24.40
2019-04-23T05:55:34.086Z,23.60
2019-04-23T05:56:21.061Z,23.10
2019-04-23T05:57:13.971Z,23.70
2019-04-23T05:58:23.179Z,23.70
2019-04-23T05:59:17.798Z,22.60
2019-04-23T06:00:23.650Z,23.70
2019-04-23T06:01:47.226Z,23.10
2019-04-23T06:02:19.934Z,23.90
2019-04-23T06:03:22.625Z,23.60
2019-04-23T06:06:29.742Z,22.80
2019-04-23T06:07:28.803Z,23.10
2019-04-23T06:08:25.297Z,21.40
2019-04-23T06:09:19.244Z,22.10
2019-04-23T06:10:23.388Z,21.70
2019-04-23T06:11:30.519Z,21.90
2019-04-23T06:12:21.469Z,21.50
2019-04-23T06:13:20.584Z,21.80
2019-04-23T06:14:26.923Z,20.60
2019-04-23T06:15:22.247Z,20.40
2019-04-23T06:16:23.565Z,20.50
2019-04-23T06:17:29.815Z,20.70
2019-04-23T06:18:25.420Z,20.30
2019-04-23T06:19:16.879Z,19.70
2019-04-23T06:20:27.278Z,19.70
2019-04-23T06:21:27.949Z,19.40
2019-04-23T06:23:28.834Z,19.50
2019-04-23T06:25:31.566Z,18.30
2019-04-23T06:26:32.184Z,18.70
2019-04-23T06:27:27.343Z,18.20
2019-04-23T06:28:24.671Z,18.30
2019-04-23T06:30:28.825Z,17.60
2019-04-23T06:31:26.550Z,16.90
2019-04-23T06:32:19.611Z,17.40
2019-04-23T06:33:41.773Z,16.50
2019-04-23T06:34:21.958Z,16.50
2019-04-23T06:35:27.063Z,16.90
2019-04-23T06:36:29.161Z,17.60
2019-04-23T06:37:28.315Z,16.90
2019-04-23T06:39:16.172Z,16.60
2019-04-23T06:40:25.137Z,15.60
2019-04-23T06:41:25.907Z,16.40
2019-04-23T06:42:19.430Z,16.90
2019-04-23T06:43:25.642Z,16.60
2019-04-23T06:45:14.546Z,16.80
2019-04-23T06:46:20.036Z,16.00
2019-04-23T06:47:21.924Z,15.50
2019-04-23T06:48:21.832Z,16.90
2019-04-23T06:49:26.188Z,17.50
2019-04-23T06:50:23.956Z,17.40
2019-04-23T06:51:31.103Z,16.10
2019-04-23T06:53:20.930Z,16.00
2019-04-23T06:54:27.677Z,15.40
2019-04-23T06:55:25.417Z,16.00
2019-04-23T06:56:26.369Z,16.10
2019-04-23T06:58:25.426Z,15.50
2019-04-23T07:00:25.897Z,15.60
2019-04-23T07:01:20.106Z,15.40
2019-04-23T07:03:21.875Z,16.00
2019-04-23T07:04:33.156Z,15.70
2019-04-23T07:05:23.850Z,16.80
2019-04-23T07:06:29.421Z,16.70
2019-04-23T07:08:41.002Z,16.60
2019-04-23T07:09:13.819Z,16.70
2019-04-23T07:10:29.894Z,16.90
2019-04-23T07:12:21.912Z,18.00
2019-04-23T07:13:33.443Z,18.40
2019-04-23T07:14:26.147Z,18.90
2019-04-23T07:15:33.595Z,19.30
2019-04-23T07:16:21.604Z,19.10
2019-04-23T07:17:21.290Z,20.90
2019-04-23T07:18:27.830Z,19.90
2019-04-23T07:20:28.643Z,20.70
2019-04-23T07:22:23.764Z,19.80
2019-04-23T07:23:35.771Z,21.00
2019-04-23T07:24:26.379Z,21.50
2019-04-23T07:26:30.409Z,21.50
2019-04-23T07:27:25.748Z,22.80
2019-04-23T07:28:26.092Z,21.60
2019-04-23T07:29:27.622Z,22.40
2019-04-23T07:30:22.327Z,22.70
2019-04-23T07:31:26.611Z,23.00
2019-04-23T07:32:23.681Z,23.60
2019-04-23T07:33:29.857Z,23.70
2019-04-23T07:34:18.768Z,22.40
2019-04-23T07:35:43.340Z,22.60
2019-04-23T07:36:29.552Z,23.20
2019-04-23T07:37:22.878Z,23.30
2019-04-23T07:38:33.349Z,22.60
2019-04-23T07:40:26.999Z,23.20
2019-04-23T07:41:30.659Z,21.50
2019-04-23T07:43:20.187Z,21.80
2019-04-23T07:44:44.632Z,20.50
2019-04-23T07:45:24.010Z,20.10
2019-04-23T07:46:40.781Z,18.90
2019-04-23T07:47:36.389Z,18.00
2019-04-23T07:48:37.055Z,17.20
2019-04-23T07:49:26.567Z,16.20
2019-04-23T07:50:31.959Z,16.50
2019-04-23T07:51:29.239Z,16.80
2019-04-23T07:53:23.094Z,15.50
2019-04-23T07:54:22.795Z,15.70
2019-04-23T07:56:21.227Z,12.30
2019-04-23T07:57:40.234Z,12.10
2019-04-23T07:58:27.418Z,12.10
2019-04-23T07:59:31.343Z,11.50
2019-04-23T08:00:35.373Z,10.60
2019-04-23T08:01:17.967Z,10.90
2019-04-23T08:02:26.233Z,11.30
2019-04-23T08:03:30.718Z,11.30
2019-04-23T08:04:29.548Z,10.90
2019-04-23T08:05:28.688Z,10.70
2019-04-23T08:06:24.605Z,10.90
2019-04-23T08:07:30.097Z,11.00
2019-04-23T08:08:39.373Z,11.60
2019-04-23T08:09:27.788Z,11.50
2019-04-23T08:10:29.767Z,11.40
2019-04-23T08:11:40.380Z,11.60
2019-04-23T08:13:37.531Z,11.00
2019-04-23T08:14:22.308Z,11.60
2019-04-23T08:15:32.740Z,11.90
2019-04-23T08:17:25.809Z,11.40
2019-04-23T08:18:29.550Z,11.90
2019-04-23T08:19:33.120Z,11.30
2019-04-23T08:20:30.720Z,11.60
2019-04-23T08:21:39.567Z,11.20
2019-04-23T08:22:28.618Z,11.40
2019-04-23T08:23:26.125Z,11.10
2019-04-23T08:24:27.510Z,11.40
2019-04-23T08:25:31.933Z,11.40
2019-04-23T08:26:34.984Z,12.60
2019-04-23T08:27:22.418Z,12.20
2019-04-23T08:28:37.142Z,11.70
2019-04-23T08:29:31.012Z,11.80
2019-04-23T08:30:28.925Z,12.20
2019-04-23T08:31:32.054Z,12.60
2019-04-23T08:32:21.317Z,12.90
2019-04-23T08:33:23.414Z,13.60
2019-04-23T08:35:21.284Z,14.90
2019-04-23T08:36:31.177Z,14.40
2019-04-23T08:37:58.774Z,14.70
2019-04-23T08:38:32.297Z,14.40
2019-04-23T08:39:32.795Z,14.50
2019-04-23T08:40:33.886Z,14.30
2019-04-23T08:41:33.458Z,14.00
2019-04-23T08:43:36.426Z,16.20
2019-04-23T08:44:44.891Z,17.90
2019-04-23T08:45:28.371Z,17.40
2019-04-23T08:46:35.542Z,17.20
2019-04-23T08:47:27.809Z,18.10
2019-04-23T08:48:27.803Z,19.50
2019-04-23T08:49:36.110Z,18.80
2019-04-23T08:52:27.517Z,21.80
2019-04-23T08:53:37.620Z,22.30
2019-04-23T08:54:46.404Z,21.50
2019-04-23T08:55:34.626Z,21.90
2019-04-23T08:56:31.876Z,20.70
2019-04-23T08:57:38.264Z,21.80
2019-04-23T08:59:39.914Z,20.50
2019-04-23T09:00:33.020Z,21.60
2019-04-23T09:01:49.212Z,21.80
2019-04-23T09:02:35.860Z,23.40
2019-04-23T09:04:31.940Z,23.40
2019-04-23T09:06:48.196Z,22.40
2019-04-23T09:07:31.858Z,21.50
2019-04-23T09:09:39.744Z,21.80
2019-04-23T09:10:37.448Z,22.70
2019-04-23T09:11:43.455Z,22.00
2019-04-23T09:12:44.090Z,20.60
2019-04-23T09:13:52.472Z,20.80
2019-04-23T09:14:27.849Z,20.30
2019-04-23T09:16:37.839Z,20.20
2019-04-23T09:17:34.123Z,20.10
2019-04-23T09:18:29.097Z,20.80
2019-04-23T09:19:32.151Z,19.60
2019-04-23T09:20:27.777Z,19.50
2019-04-23T09:21:29.267Z,20.20
2019-04-23T09:23:34.706Z,19.20
2019-04-23T09:24:33.011Z,19.20
2019-04-23T09:25:37.344Z,19.10
2019-04-23T09:26:25.843Z,20.10
2019-04-23T09:29:39.112Z,20.10
2019-04-23T09:30:33.673Z,23.00
2019-04-23T09:31:45.764Z,22.60
2019-04-23T09:34:31.514Z,25.00
2019-04-23T09:37:34.727Z,25.10
2019-04-23T09:38:44.998Z,24.80
2019-04-23T09:40:41.481Z,25.70
2019-04-23T09:41:27.390Z,26.70
2019-04-23T09:42:33.494Z,27.70
2019-04-23T09:44:47.230Z,26.60
2019-04-23T09:45:34.262Z,28.00
2019-04-23T09:46:29.642Z,27.70
2019-04-23T09:47:49.011Z,28.30
2019-04-23T09:48:35.425Z,27.40
2019-04-23T09:49:35.021Z,27.50
2019-04-23T09:51:32.865Z,26.70
2019-04-23T09:53:27.826Z,25.50
2019-04-23T09:54:36.866Z,29.10
2019-04-23T09:55:35.634Z,27.00
2019-04-23T09:56:37.850Z,27.10
2019-04-23T09:57:36.112Z,27.40
2019-04-23T09:58:41.973Z,28.70
2019-04-23T10:02:22.163Z,28.90
2019-04-23T10:03:20.142Z,27.30
2019-04-23T10:04:18.842Z,28.70
2019-04-23T10:05:16.620Z,29.40
2019-04-23T10:06:12.681Z,27.00
2019-04-23T10:07:17.985Z,27.30
2019-04-23T10:08:13.845Z,25.60
2019-04-23T10:09:06.670Z,25.80
2019-04-23T10:10:05.371Z,27.00
2019-04-23T10:11:05.087Z,26.10
2019-04-23T10:12:05.169Z,24.70
2019-04-23T10:13:06.014Z,24.70
2019-04-23T10:14:06.064Z,24.50
2019-04-23T10:15:10.911Z,25.40
2019-04-23T10:16:06.423Z,24.60
2019-04-23T10:17:06.282Z,24.30
2019-04-23T10:18:04.791Z,24.40
2019-04-23T10:19:06.050Z,24.70
2019-04-23T10:20:04.867Z,24.40
2019-04-23T10:21:05.620Z,23.40
2019-04-23T10:22:05.143Z,22.20
2019-04-23T10:23:06.273Z,23.50
2019-04-23T10:24:05.470Z,22.50
2019-04-23T10:25:06.673Z,21.60
2019-04-23T10:26:06.160Z,22.20
2019-04-23T10:27:06.058Z,23.90
2019-04-23T10:28:08.864Z,24.00
2019-04-23T10:29:05.642Z,23.10
2019-04-23T10:30:05.967Z,17.80
2019-04-23T10:31:06.948Z,16.50
2019-04-23T10:32:05.427Z,17.60
2019-04-23T10:33:05.719Z,16.80
2019-04-23T10:34:06.400Z,15.50
2019-04-23T10:35:20.236Z,15.10
2019-04-23T10:36:11.053Z,15.70
2019-04-23T10:37:07.163Z,15.70
2019-04-23T10:38:10.770Z,16.20
2019-04-23T10:39:11.815Z,16.30
2019-04-23T10:40:11.152Z,15.40
2019-04-23T10:41:06.429Z,14.40
2019-04-23T10:42:05.987Z,15.20
2019-04-23T10:43:07.382Z,16.50
2019-04-23T10:44:07.075Z,16.50
2019-04-23T10:45:19.352Z,15.80
2019-04-23T10:46:27.993Z,15.50
2019-04-23T10:47:32.351Z,14.00
2019-04-23T10:50:40.327Z,13.80
2019-04-23T10:52:33.778Z,13.20
2019-04-23T10:53:38.006Z,13.10
2019-04-23T10:55:41.025Z,12.70
2019-04-23T10:57:46.185Z,13.80
2019-04-23T10:58:35.364Z,12.50
2019-04-23T10:59:35.025Z,12.00
2019-04-23T11:00:36.066Z,12.60
2019-04-23T11:01:39.266Z,11.20
2019-04-23T11:02:40.164Z,10.40
2019-04-23T11:04:49.171Z,10.20
2019-04-23T11:05:47.581Z,10.80
2019-04-23T11:06:41.104Z,10.60
2019-04-23T11:08:37.043Z,10.30
2019-04-23T11:09:49.636Z,10.30
2019-04-23T11:10:32.875Z,10.20
2019-04-23T11:11:36.114Z,11.10
2019-04-23T11:13:31.827Z,9.90
2019-04-23T11:14:42.249Z,9.90
2019-04-23T11:15:47.312Z,9.50
2019-04-23T11:18:47.772Z,10.40
2019-04-23T11:20:41.206Z,12.30
2019-04-23T11:21:47.678Z,11.60
2019-04-23T11:23:34.591Z,12.20
2019-04-23T11:24:41.715Z,11.90
2019-04-23T11:26:42.397Z,11.60
2019-04-23T11:27:42.932Z,13.70
2019-04-23T11:31:54.275Z,12.10
2019-04-23T11:33:39.530Z,11.40
2019-04-23T11:34:57.064Z,10.90
2019-04-23T11:35:50.611Z,11.80
2019-04-23T11:38:16.045Z,13.20
2019-04-23T11:39:49.587Z,13.30
2019-04-23T11:40:33.282Z,13.00
2019-04-23T11:41:45.773Z,13.70
2019-04-23T11:42:44.324Z,14.20
2019-04-23T11:43:34.347Z,14.30
2019-04-23T11:45:53.837Z,13.60
2019-04-23T11:51:11.192Z,13.90
2019-04-23T11:52:44.672Z,12.90
2019-04-23T11:53:42.898Z,14.90
2019-04-23T11:54:39.367Z,13.60
2019-04-23T11:57:07.810Z,13.00
2019-04-23T11:59:44.331Z,14.10
2019-04-23T12:00:51.261Z,13.50
2019-04-23T12:01:46.510Z,13.50
2019-04-23T12:02:43.417Z,13.40
2019-04-23T12:03:47.086Z,14.40
2019-04-23T12:04:49.920Z,13.10
2019-04-23T12:05:41.665Z,13.30
2019-04-23T12:06:44.469Z,14.70
2019-04-23T12:07:33.980Z,14.50
2019-04-23T12:08:47.495Z,14.10
2019-04-23T12:09:46.564Z,13.90
2019-04-23T12:12:39.606Z,13.40
2019-04-23T12:13:45.256Z,14.80
2019-04-23T12:14:42.249Z,14.90
2019-04-23T12:15:53.449Z,13.60
2019-04-23T12:16:47.136Z,14.90
2019-04-23T12:17:43.803Z,15.30
2019-04-23T12:19:01.853Z,14.20
2019-04-23T12:21:43.799Z,12.90
2019-04-23T12:22:51.795Z,12.80
2019-04-23T12:23:52.285Z,12.50
2019-04-23T12:25:47.633Z,12.70
2019-04-23T12:26:44.066Z,12.00
2019-04-23T12:27:35.504Z,12.10
2019-04-23T12:28:44.057Z,11.30
2019-04-23T12:30:50.153Z,11.70
2019-04-23T12:31:38.013Z,11.40
2019-04-23T12:32:48.053Z,10.90
2019-04-23T12:33:43.888Z,9.80
2019-04-23T12:34:46.844Z,10.40
2019-04-23T12:35:42.304Z,10.30
2019-04-23T12:36:42.069Z,11.00
2019-04-23T12:37:41.262Z,10.20
2019-04-23T12:38:47.908Z,9.70
2019-04-23T12:39:41.539Z,9.40
2019-04-23T12:41:44.824Z,9.70
2019-04-23T12:43:28.648Z,9.70
2019-04-23T12:44:46.186Z,10.40
2019-04-23T12:45:35.542Z,10.20
2019-04-23T12:47:58.293Z,10.70
2019-04-23T12:48:51.959Z,11.00
2019-04-23T12:50:51.575Z,11.10
2019-04-23T12:51:53.532Z,12.00
2019-04-23T12:53:41.755Z,11.80
2019-04-23T12:55:40.345Z,11.80
2019-04-23T12:56:48.710Z,12.40
2019-04-23T12:57:43.694Z,13.20
2019-04-23T12:58:32.134Z,12.30
2019-04-23T12:59:44.677Z,12.40
2019-04-23T13:01:51.354Z,12.20
2019-04-23T13:02:44.627Z,12.00
2019-04-23T13:04:41.593Z,12.80
2019-04-23T13:06:40.718Z,13.00
2019-04-23T13:08:02.017Z,12.90
2019-04-23T13:08:46.570Z,13.30
2019-04-23T13:09:47.545Z,12.70
2019-04-23T13:10:50.124Z,11.90
2019-04-23T13:11:45.637Z,12.20
2019-04-23T13:12:50.304Z,11.00
2019-04-23T13:13:47.962Z,11.10
2019-04-23T13:14:57.636Z,10.60
2019-04-23T13:15:45.618Z,10.90
2019-04-23T13:16:45.589Z,11.50
2019-04-23T13:18:46.766Z,11.00
2019-04-23T13:19:49.526Z,10.60
2019-04-23T13:20:38.553Z,10.60
2019-04-23T13:22:49.400Z,10.20
2019-04-23T13:23:39.160Z,9.40
2019-04-23T13:24:40.787Z,10.50
2019-04-23T13:26:37.956Z,10.10
2019-04-23T13:27:46.906Z,10.00
2019-04-23T13:28:39.630Z,10.60
2019-04-23T13:29:56.560Z,9.80
2019-04-23T13:30:51.321Z,10.00
2019-04-23T13:31:40.319Z,10.70
2019-04-23T13:32:48.827Z,10.60
2019-04-23T13:33:44.110Z,9.80
2019-04-23T13:34:54.755Z,10.10
2019-04-23T13:36:45.144Z,9.50
2019-04-23T13:37:58.899Z,9.80
2019-04-23T13:38:43.934Z,9.20
2019-04-23T13:39:50.341Z,9.10
2019-04-23T13:41:01.169Z,9.90
2019-04-23T13:41:40.568Z,9.80
2019-04-23T13:42:45.246Z,9.30
2019-04-23T13:44:51.882Z,9.30
2019-04-23T13:46:01.554Z,9.40
2019-04-23T13:46:40.978Z,9.60
2019-04-23T13:48:37.648Z,9.00
2019-04-23T13:49:51.137Z,8.80
2019-04-23T13:51:40.449Z,9.70
2019-04-23T13:55:01.413Z,9.70
2019-04-23T13:55:42.896Z,9.70
2019-04-23T13:57:13.151Z,10.10
2019-04-23T13:58:02.661Z,9.30
2019-04-23T13:58:43.293Z,10.00
2019-04-23T13:59:44.364Z,9.60
2019-04-23T14:00:59.611Z,9.80
2019-04-23T14:02:43.827Z,9.80
2019-04-23T14:05:49.375Z,10.90
2019-04-23T14:06:43.480Z,10.20
2019-04-23T14:07:48.422Z,12.00
2019-04-23T14:10:04.630Z,11.40
2019-04-23T14:10:46.533Z,12.00
2019-04-23T14:11:38.882Z,12.30
2019-04-23T14:13:03.652Z,12.40
2019-04-23T14:15:54.033Z,12.10
2019-04-23T14:17:59.440Z,13.40
2019-04-23T14:19:45.716Z,16.30
2019-04-23T14:21:12.153Z,14.80
2019-04-23T14:21:46.959Z,14.50
2019-04-23T14:23:00.308Z,13.40
2019-04-23T14:24:02.941Z,13.00
2019-04-23T14:25:59.631Z,13.20
2019-04-23T14:26:48.310Z,13.20
2019-04-23T14:28:01.384Z,13.00
2019-04-23T14:30:54.243Z,12.90
2019-04-23T14:31:43.460Z,13.80
2019-04-23T14:32:45.465Z,13.90
2019-04-23T14:33:52.648Z,13.20
2019-04-23T14:34:56.858Z,14.40
2019-04-23T14:35:45.226Z,14.50
2019-04-23T14:36:52.126Z,16.30
2019-04-23T14:38:01.951Z,15.00
2019-04-23T14:39:47.741Z,14.50
2019-04-23T14:40:58.930Z,13.70
2019-04-23T14:42:12.509Z,13.40
2019-04-23T14:43:04.402Z,12.90
2019-04-23T14:44:51.569Z,12.30
2019-04-23T14:46:04.785Z,12.50
2019-04-23T14:46:54.882Z,12.10
2019-04-23T14:48:04.296Z,11.70
2019-04-23T14:50:09.309Z,10.80
2019-04-23T14:51:11.133Z,10.40
2019-04-23T14:52:58.876Z,9.70
2019-04-23T14:53:46.569Z,9.30
2019-04-23T14:55:22.411Z,9.40
2019-04-23T14:55:57.436Z,10.20
2019-04-23T14:56:51.615Z,10.30
2019-04-23T14:58:09.915Z,9.50
2019-04-23T14:58:58.032Z,10.70
2019-04-23T14:59:57.282Z,10.70
2019-04-23T15:01:07.246Z,10.90
2019-04-23T15:01:49.514Z,11.00
2019-04-23T15:02:51.929Z,10.70
2019-04-23T15:03:46.738Z,10.90
2019-04-23T15:04:51.768Z,11.00
2019-04-23T15:05:56.395Z,10.80
2019-04-23T15:07:52.174Z,12.10
2019-04-23T15:09:59.265Z,12.10
2019-04-23T15:11:44.092Z,12.50
2019-04-23T15:12:57.906Z,11.90
2019-04-23T15:13:51.213Z,12.60
2019-04-23T15:14:59.845Z,11.90
2019-04-23T15:15:53.433Z,12.20
2019-04-23T15:16:56.357Z,12.50
2019-04-23T15:17:49.685Z,12.30
2019-04-23T15:19:02.588Z,13.30
2019-04-23T15:19:48.247Z,13.30
2019-04-23T15:20:53.586Z,11.90
2019-04-23T15:22:04.788Z,12.60
2019-04-23T15:23:02.761Z,12.10
2019-04-23T15:24:48.662Z,11.60
2019-04-23T15:26:44.500Z,11.20
2019-04-23T15:28:05.228Z,12.20
2019-04-23T15:28:30.305Z,12.10
2019-04-23T15:29:43.013Z,12.00
2019-04-23T15:30:57.125Z,13.10
2019-04-23T15:33:07.663Z,17.60
2019-04-23T15:34:57.422Z,18.10
2019-04-23T15:36:04.171Z,18.70
2019-04-23T15:37:12.461Z,18.30
2019-04-23T15:39:58.894Z,18.40
2019-04-23T15:40:54.621Z,19.50
2019-04-23T15:43:57.423Z,19.40
2019-04-23T15:44:57.373Z,20.00
2019-04-23T15:45:56.609Z,19.20
2019-04-23T15:46:56.577Z,19.40
2019-04-23T15:48:00.379Z,18.50
2019-04-23T15:49:01.482Z,19.20
2019-04-23T15:49:51.465Z,17.60
2019-04-23T15:50:51.678Z,19.00
2019-04-23T15:51:57.925Z,18.10
2019-04-23T15:52:56.512Z,17.80
2019-04-23T15:53:48.567Z,18.30
2019-04-23T15:54:55.290Z,17.50
2019-04-23T15:55:50.202Z,17.80
2019-04-23T15:59:04.434Z,17.20
2019-04-23T16:01:00.773Z,17.10
2019-04-23T16:01:41.109Z,17.80
2019-04-23T16:02:23.731Z,17.20